sensor_id;sensor_type;location;lat;lon;timestamp;P1;durP1;ratioP1;P2;durP2;ratioP2
39256;SDS011;24958;48.066;11.038;2022-12-13T00:02:20;9.53;;;5.83;;
39256;SDS011;24958;48.066;11.038;2022-12-13T00:04:46;9.67;;;5.67;;
39256;SDS011;24958;48.066;11.038;2022-12-13T00:07:12;9.70;;;6.40;;
39256;SDS011;24958;48.066;11.038;2022-12-13T00:09:39;7.53;;;5.87;;
39256;SDS011;24958;48.066;11.038;2022-12-13T00:12:07;8.17;;;5.70;;
39256;SDS011;24958;48.066;11.038;2022-12-13T00:14:33;11.07;;;6.13;;
39256;SDS011;24958;48.066;11.038;2022-12-13T00:16:59;8.73;;;5.73;;
39256;SDS011;24958;48.066;11.038;2022-12-13T00:19:25;8.27;;;5.70;;
39256;SDS011;24958;48.066;11.038;2022-12-13T00:21:52;8.43;;;6.10;;
39256;SDS011;24958;48.066;11.038;2022-12-13T00:24:18;6.60;;;5.37;;
39256;SDS011;24958;48.066;11.038;2022-12-13T00:26:44;8.87;;;6.27;;
39256;SDS011;24958;48.066;11.038;2022-12-13T00:29:10;8.57;;;5.50;;
39256;SDS011;24958;48.066;11.038;2022-12-13T00:31:36;7.53;;;5.87;;
39256;SDS011;24958;48.066;11.038;2022-12-13T00:34:03;6.67;;;5.37;;
39256;SDS011;24958;48.066;11.038;2022-12-13T00:36:29;9.73;;;6.27;;
39256;SDS011;24958;48.066;11.038;2022-12-13T00:38:55;9.93;;;6.10;;
39256;SDS011;24958;48.066;11.038;2022-12-13T00:41:25;9.33;;;5.53;;
39256;SDS011;24958;48.066;11.038;2022-12-13T00:43:51;8.33;;;5.90;;
39256;SDS011;24958;48.066;11.038;2022-12-13T00:46:18;8.67;;;6.13;;
39256;SDS011;24958;48.066;11.038;2022-12-13T00:48:49;9.10;;;6.60;;
39256;SDS011;24958;48.066;11.038;2022-12-13T00:51:15;7.70;;;5.63;;
39256;SDS011;24958;48.066;11.038;2022-12-13T00:53:43;7.73;;;5.37;;
39256;SDS011;24958;48.066;11.038;2022-12-13T00:56:13;8.50;;;5.63;;
39256;SDS011;24958;48.066;11.038;2022-12-13T00:58:40;9.17;;;5.80;;
39256;SDS011;24958;48.066;11.038;2022-12-13T01:01:07;8.23;;;6.10;;
39256;SDS011;24958;48.066;11.038;2022-12-13T01:03:34;7.73;;;5.60;;
39256;SDS011;24958;48.066;11.038;2022-12-13T01:06:00;8.97;;;5.33;;
39256;SDS011;24958;48.066;11.038;2022-12-13T01:08:26;6.97;;;5.27;;
39256;SDS011;24958;48.066;11.038;2022-12-13T01:10:53;7.20;;;5.57;;
39256;SDS011;24958;48.066;11.038;2022-12-13T01:13:19;7.17;;;5.47;;
39256;SDS011;24958;48.066;11.038;2022-12-13T01:15:46;8.83;;;5.27;;
39256;SDS011;24958;48.066;11.038;2022-12-13T01:18:12;10.77;;;6.30;;
39256;SDS011;24958;48.066;11.038;2022-12-13T01:20:42;9.00;;;4.87;;
39256;SDS011;24958;48.066;11.038;2022-12-13T01:23:08;8.10;;;5.43;;
39256;SDS011;24958;48.066;11.038;2022-12-13T01:25:36;7.83;;;5.87;;
39256;SDS011;24958;48.066;11.038;2022-12-13T01:28:02;8.30;;;5.03;;
39256;SDS011;24958;48.066;11.038;2022-12-13T01:30:28;8.93;;;5.73;;
39256;SDS011;24958;48.066;11.038;2022-12-13T01:32:54;8.70;;;5.67;;
39256;SDS011;24958;48.066;11.038;2022-12-13T01:35:20;7.03;;;5.13;;
39256;SDS011;24958;48.066;11.038;2022-12-13T01:37:46;6.90;;;5.50;;
39256;SDS011;24958;48.066;11.038;2022-12-13T01:40:13;6.87;;;5.13;;
39256;SDS011;24958;48.066;11.038;2022-12-13T01:42:39;7.90;;;5.27;;
39256;SDS011;24958;48.066;11.038;2022-12-13T01:45:22;6.50;;;4.83;;
39256;SDS011;24958;48.066;11.038;2022-12-13T01:47:50;8.23;;;5.40;;
39256;SDS011;24958;48.066;11.038;2022-12-13T01:50:19;8.33;;;5.23;;
39256;SDS011;24958;48.066;11.038;2022-12-13T01:52:47;8.57;;;5.77;;
39256;SDS011;24958;48.066;11.038;2022-12-13T01:55:13;8.83;;;5.47;;
39256;SDS011;24958;48.066;11.038;2022-12-13T01:57:41;8.47;;;5.23;;
39256;SDS011;24958;48.066;11.038;2022-12-13T02:00:09;9.30;;;5.80;;
39256;SDS011;24958;48.066;11.038;2022-12-13T02:02:35;7.47;;;5.07;;
39256;SDS011;24958;48.066;11.038;2022-12-13T02:05:50;8.17;;;5.50;;
39256;SDS011;24958;48.066;11.038;2022-12-13T02:07:48;7.87;;;5.30;;
39256;SDS011;24958;48.066;11.038;2022-12-13T02:10:18;7.60;;;5.70;;
39256;SDS011;24958;48.066;11.038;2022-12-13T02:12:44;7.70;;;5.37;;
39256;SDS011;24958;48.066;11.038;2022-12-13T02:15:14;7.80;;;5.23;;
39256;SDS011;24958;48.066;11.038;2022-12-13T02:17:51;5.57;;;4.83;;
39256;SDS011;24958;48.066;11.038;2022-12-13T02:23:04;7.50;;;5.23;;
39256;SDS011;24958;48.066;11.038;2022-12-13T02:25:39;6.00;;;4.53;;
39256;SDS011;24958;48.066;11.038;2022-12-13T02:30:40;7.37;;;5.50;;
39256;SDS011;24958;48.066;11.038;2022-12-13T02:40:33;5.93;;;5.20;;
39256;SDS011;24958;48.066;11.038;2022-12-13T02:45:39;6.53;;;4.80;;
39256;SDS011;24958;48.066;11.038;2022-12-13T02:48:06;6.43;;;4.80;;
39256;SDS011;24958;48.066;11.038;2022-12-13T02:50:34;8.17;;;5.63;;
39256;SDS011;24958;48.066;11.038;2022-12-13T02:53:00;8.13;;;5.10;;
39256;SDS011;24958;48.066;11.038;2022-12-13T02:55:27;7.93;;;5.20;;
39256;SDS011;24958;48.066;11.038;2022-12-13T02:57:53;7.00;;;5.20;;
39256;SDS011;24958;48.066;11.038;2022-12-13T03:00:21;6.20;;;4.90;;
39256;SDS011;24958;48.066;11.038;2022-12-13T03:05:26;8.27;;;5.23;;
39256;SDS011;24958;48.066;11.038;2022-12-13T03:08:22;7.13;;;4.90;;
39256;SDS011;24958;48.066;11.038;2022-12-13T03:13:21;6.37;;;4.90;;
39256;SDS011;24958;48.066;11.038;2022-12-13T03:16:08;6.70;;;4.87;;
39256;SDS011;24958;48.066;11.038;2022-12-13T03:18:35;7.70;;;5.07;;
39256;SDS011;24958;48.066;11.038;2022-12-13T03:21:03;7.23;;;5.27;;
39256;SDS011;24958;48.066;11.038;2022-12-13T03:23:29;6.77;;;4.90;;
39256;SDS011;24958;48.066;11.038;2022-12-13T03:25:58;8.30;;;5.30;;
39256;SDS011;24958;48.066;11.038;2022-12-13T03:28:25;8.83;;;4.83;;
39256;SDS011;24958;48.066;11.038;2022-12-13T03:30:51;7.23;;;5.03;;
39256;SDS011;24958;48.066;11.038;2022-12-13T03:33:18;7.07;;;5.63;;
39256;SDS011;24958;48.066;11.038;2022-12-13T03:35:44;8.93;;;5.70;;
39256;SDS011;24958;48.066;11.038;2022-12-13T03:38:14;9.13;;;5.60;;
39256;SDS011;24958;48.066;11.038;2022-12-13T03:40:41;8.43;;;6.03;;
39256;SDS011;24958;48.066;11.038;2022-12-13T03:43:07;8.27;;;5.57;;
39256;SDS011;24958;48.066;11.038;2022-12-13T03:45:33;8.53;;;6.13;;
39256;SDS011;24958;48.066;11.038;2022-12-13T03:47:59;9.60;;;6.13;;
39256;SDS011;24958;48.066;11.038;2022-12-13T03:50:25;7.43;;;5.57;;
39256;SDS011;24958;48.066;11.038;2022-12-13T03:52:56;7.40;;;5.27;;
39256;SDS011;24958;48.066;11.038;2022-12-13T03:55:23;8.33;;;6.00;;
39256;SDS011;24958;48.066;11.038;2022-12-13T03:57:49;9.70;;;6.00;;
39256;SDS011;24958;48.066;11.038;2022-12-13T04:00:15;7.37;;;5.23;;
39256;SDS011;24958;48.066;11.038;2022-12-13T04:02:41;9.03;;;6.10;;
39256;SDS011;24958;48.066;11.038;2022-12-13T04:05:07;7.73;;;6.00;;
39256;SDS011;24958;48.066;11.038;2022-12-13T04:07:34;8.03;;;6.00;;
39256;SDS011;24958;48.066;11.038;2022-12-13T04:10:00;8.10;;;5.73;;
39256;SDS011;24958;48.066;11.038;2022-12-13T04:12:26;8.83;;;6.27;;
39256;SDS011;24958;48.066;11.038;2022-12-13T04:15:11;9.00;;;6.07;;
39256;SDS011;24958;48.066;11.038;2022-12-13T04:17:37;7.33;;;5.37;;
39256;SDS011;24958;48.066;11.038;2022-12-13T04:20:03;8.93;;;6.03;;
39256;SDS011;24958;48.066;11.038;2022-12-13T04:22:30;9.23;;;6.27;;
39256;SDS011;24958;48.066;11.038;2022-12-13T04:24:56;9.47;;;6.63;;
39256;SDS011;24958;48.066;11.038;2022-12-13T04:27:22;13.20;;;7.97;;
39256;SDS011;24958;48.066;11.038;2022-12-13T04:29:48;97.27;;;37.23;;
39256;SDS011;24958;48.066;11.038;2022-12-13T04:32:14;183.27;;;72.37;;
39256;SDS011;24958;48.066;11.038;2022-12-13T04:34:40;145.30;;;56.60;;
39256;SDS011;24958;48.066;11.038;2022-12-13T04:37:07;104.10;;;44.00;;
39256;SDS011;24958;48.066;11.038;2022-12-13T04:39:34;88.83;;;41.30;;
39256;SDS011;24958;48.066;11.038;2022-12-13T04:42:00;49.13;;;24.30;;
39256;SDS011;24958;48.066;11.038;2022-12-13T04:44:26;89.40;;;41.27;;
39256;SDS011;24958;48.066;11.038;2022-12-13T04:46:52;36.63;;;19.27;;
39256;SDS011;24958;48.066;11.038;2022-12-13T04:49:18;60.67;;;26.13;;
39256;SDS011;24958;48.066;11.038;2022-12-13T04:51:44;53.17;;;26.67;;
39256;SDS011;24958;48.066;11.038;2022-12-13T04:54:11;184.77;;;84.20;;
39256;SDS011;24958;48.066;11.038;2022-12-13T04:56:37;57.20;;;29.93;;
39256;SDS011;24958;48.066;11.038;2022-12-13T04:59:03;27.37;;;16.93;;
39256;SDS011;24958;48.066;11.038;2022-12-13T05:01:29;16.50;;;12.37;;
39256;SDS011;24958;48.066;11.038;2022-12-13T05:03:56;16.27;;;11.23;;
39256;SDS011;24958;48.066;11.038;2022-12-13T05:06:22;15.53;;;10.77;;
39256;SDS011;24958;48.066;11.038;2022-12-13T05:08:48;17.60;;;11.67;;
39256;SDS011;24958;48.066;11.038;2022-12-13T05:11:14;13.27;;;10.20;;
39256;SDS011;24958;48.066;11.038;2022-12-13T05:13:40;14.50;;;10.40;;
39256;SDS011;24958;48.066;11.038;2022-12-13T05:16:07;15.17;;;11.03;;
39256;SDS011;24958;48.066;11.038;2022-12-13T05:18:34;15.70;;;12.40;;
39256;SDS011;24958;48.066;11.038;2022-12-13T05:21:04;12.03;;;9.43;;
39256;SDS011;24958;48.066;11.038;2022-12-13T05:23:30;18.00;;;14.07;;
39256;SDS011;24958;48.066;11.038;2022-12-13T05:25:57;15.03;;;10.50;;
39256;SDS011;24958;48.066;11.038;2022-12-13T05:28:24;10.07;;;6.50;;
39256;SDS011;24958;48.066;11.038;2022-12-13T05:30:53;8.60;;;6.37;;
39256;SDS011;24958;48.066;11.038;2022-12-13T05:33:19;10.13;;;7.77;;
39256;SDS011;24958;48.066;11.038;2022-12-13T05:35:46;8.93;;;6.40;;
39256;SDS011;24958;48.066;11.038;2022-12-13T05:38:12;7.93;;;5.80;;
39256;SDS011;24958;48.066;11.038;2022-12-13T05:40:38;6.77;;;4.50;;
39256;SDS011;24958;48.066;11.038;2022-12-13T05:43:04;9.00;;;6.47;;
39256;SDS011;24958;48.066;11.038;2022-12-13T05:45:31;9.03;;;6.33;;
39256;SDS011;24958;48.066;11.038;2022-12-13T05:47:57;5.57;;;4.03;;
39256;SDS011;24958;48.066;11.038;2022-12-13T05:50:24;8.93;;;6.63;;
39256;SDS011;24958;48.066;11.038;2022-12-13T05:52:50;7.90;;;6.07;;
39256;SDS011;24958;48.066;11.038;2022-12-13T05:55:16;9.33;;;7.17;;
39256;SDS011;24958;48.066;11.038;2022-12-13T05:57:42;7.50;;;5.03;;
39256;SDS011;24958;48.066;11.038;2022-12-13T06:00:09;8.40;;;6.70;;
39256;SDS011;24958;48.066;11.038;2022-12-13T06:02:39;9.27;;;6.23;;
39256;SDS011;24958;48.066;11.038;2022-12-13T06:05:05;9.43;;;6.03;;
39256;SDS011;24958;48.066;11.038;2022-12-13T06:07:31;11.07;;;6.70;;
39256;SDS011;24958;48.066;11.038;2022-12-13T06:09:58;13.63;;;6.73;;
39256;SDS011;24958;48.066;11.038;2022-12-13T06:12:24;10.33;;;7.23;;
39256;SDS011;24958;48.066;11.038;2022-12-13T06:14:50;11.67;;;7.40;;
39256;SDS011;24958;48.066;11.038;2022-12-13T06:17:16;11.83;;;8.13;;
39256;SDS011;24958;48.066;11.038;2022-12-13T06:19:43;10.63;;;7.70;;
39256;SDS011;24958;48.066;11.038;2022-12-13T06:22:10;11.53;;;8.00;;
39256;SDS011;24958;48.066;11.038;2022-12-13T06:24:36;9.50;;;6.57;;
39256;SDS011;24958;48.066;11.038;2022-12-13T06:27:03;11.60;;;8.20;;
39256;SDS011;24958;48.066;11.038;2022-12-13T06:29:29;11.63;;;8.43;;
39256;SDS011;24958;48.066;11.038;2022-12-13T06:31:56;10.87;;;7.73;;
39256;SDS011;24958;48.066;11.038;2022-12-13T06:34:22;12.33;;;9.20;;
39256;SDS011;24958;48.066;11.038;2022-12-13T06:36:49;9.03;;;5.47;;
39256;SDS011;24958;48.066;11.038;2022-12-13T06:39:15;11.63;;;8.67;;
39256;SDS011;24958;48.066;11.038;2022-12-13T06:41:41;14.33;;;9.67;;
39256;SDS011;24958;48.066;11.038;2022-12-13T06:44:07;10.37;;;8.17;;
39256;SDS011;24958;48.066;11.038;2022-12-13T06:46:34;13.43;;;8.30;;
39256;SDS011;24958;48.066;11.038;2022-12-13T06:49:00;10.73;;;7.47;;
39256;SDS011;24958;48.066;11.038;2022-12-13T06:51:26;9.27;;;6.10;;
39256;SDS011;24958;48.066;11.038;2022-12-13T06:53:52;11.43;;;7.63;;
39256;SDS011;24958;48.066;11.038;2022-12-13T06:56:18;8.80;;;6.60;;
39256;SDS011;24958;48.066;11.038;2022-12-13T06:58:44;11.37;;;8.50;;
39256;SDS011;24958;48.066;11.038;2022-12-13T07:01:12;11.27;;;7.83;;
39256;SDS011;24958;48.066;11.038;2022-12-13T07:03:39;10.00;;;7.57;;
39256;SDS011;24958;48.066;11.038;2022-12-13T07:06:06;14.63;;;9.07;;
39256;SDS011;24958;48.066;11.038;2022-12-13T07:08:33;13.77;;;7.67;;
39256;SDS011;24958;48.066;11.038;2022-12-13T07:11:00;12.00;;;7.73;;
39256;SDS011;24958;48.066;11.038;2022-12-13T07:13:26;9.10;;;6.37;;
39256;SDS011;24958;48.066;11.038;2022-12-13T07:15:52;9.23;;;6.83;;
39256;SDS011;24958;48.066;11.038;2022-12-13T07:18:19;7.40;;;5.37;;
39256;SDS011;24958;48.066;11.038;2022-12-13T07:20:45;9.23;;;7.20;;
39256;SDS011;24958;48.066;11.038;2022-12-13T07:23:11;8.23;;;7.00;;
39256;SDS011;24958;48.066;11.038;2022-12-13T07:25:38;9.30;;;6.63;;
39256;SDS011;24958;48.066;11.038;2022-12-13T07:28:07;12.50;;;8.20;;
39256;SDS011;24958;48.066;11.038;2022-12-13T07:30:37;14.60;;;9.60;;
39256;SDS011;24958;48.066;11.038;2022-12-13T07:33:04;4.33;;;3.93;;
39256;SDS011;24958;48.066;11.038;2022-12-13T07:35:31;7.43;;;3.77;;
39256;SDS011;24958;48.066;11.038;2022-12-13T07:37:57;10.63;;;5.70;;
39256;SDS011;24958;48.066;11.038;2022-12-13T07:40:24;9.73;;;7.73;;
39256;SDS011;24958;48.066;11.038;2022-12-13T07:42:53;12.97;;;8.80;;
39256;SDS011;24958;48.066;11.038;2022-12-13T07:45:21;11.90;;;8.70;;
39256;SDS011;24958;48.066;11.038;2022-12-13T07:47:48;7.07;;;5.27;;
39256;SDS011;24958;48.066;11.038;2022-12-13T07:50:14;6.27;;;4.73;;
39256;SDS011;24958;48.066;11.038;2022-12-13T07:52:40;4.30;;;3.33;;
39256;SDS011;24958;48.066;11.038;2022-12-13T07:55:06;4.80;;;2.83;;
39256;SDS011;24958;48.066;11.038;2022-12-13T07:57:33;7.73;;;4.40;;
39256;SDS011;24958;48.066;11.038;2022-12-13T07:59:59;12.10;;;7.00;;
39256;SDS011;24958;48.066;11.038;2022-12-13T08:02:25;8.33;;;5.07;;
39256;SDS011;24958;48.066;11.038;2022-12-13T08:04:52;4.03;;;3.10;;
39256;SDS011;24958;48.066;11.038;2022-12-13T08:07:18;9.60;;;6.63;;
39256;SDS011;24958;48.066;11.038;2022-12-13T08:09:44;6.20;;;4.00;;
39256;SDS011;24958;48.066;11.038;2022-12-13T08:12:10;9.03;;;5.17;;
39256;SDS011;24958;48.066;11.038;2022-12-13T08:14:36;3.80;;;3.20;;
39256;SDS011;24958;48.066;11.038;2022-12-13T08:17:02;10.43;;;7.10;;
39256;SDS011;24958;48.066;11.038;2022-12-13T08:19:28;9.80;;;7.20;;
39256;SDS011;24958;48.066;11.038;2022-12-13T08:21:54;10.03;;;6.63;;
39256;SDS011;24958;48.066;11.038;2022-12-13T08:24:21;9.30;;;6.30;;
39256;SDS011;24958;48.066;11.038;2022-12-13T08:26:48;9.37;;;6.40;;
39256;SDS011;24958;48.066;11.038;2022-12-13T08:29:14;9.03;;;7.23;;
39256;SDS011;24958;48.066;11.038;2022-12-13T08:31:40;8.80;;;6.73;;
39256;SDS011;24958;48.066;11.038;2022-12-13T08:34:06;16.27;;;10.53;;
39256;SDS011;24958;48.066;11.038;2022-12-13T08:36:32;8.03;;;6.03;;
39256;SDS011;24958;48.066;11.038;2022-12-13T08:38:59;10.20;;;6.67;;
39256;SDS011;24958;48.066;11.038;2022-12-13T08:41:27;10.53;;;8.00;;
39256;SDS011;24958;48.066;11.038;2022-12-13T08:43:53;9.37;;;6.23;;
39256;SDS011;24958;48.066;11.038;2022-12-13T08:46:19;7.10;;;5.10;;
39256;SDS011;24958;48.066;11.038;2022-12-13T08:48:46;16.43;;;14.93;;
39256;SDS011;24958;48.066;11.038;2022-12-13T08:51:12;11.07;;;8.30;;
39256;SDS011;24958;48.066;11.038;2022-12-13T08:53:39;9.17;;;6.83;;
39256;SDS011;24958;48.066;11.038;2022-12-13T08:56:06;11.00;;;8.03;;
39256;SDS011;24958;48.066;11.038;2022-12-13T08:58:34;12.60;;;9.20;;
39256;SDS011;24958;48.066;11.038;2022-12-13T09:01:00;7.93;;;5.10;;
39256;SDS011;24958;48.066;11.038;2022-12-13T09:03:29;9.10;;;7.50;;
39256;SDS011;24958;48.066;11.038;2022-12-13T09:05:55;14.27;;;11.87;;
39256;SDS011;24958;48.066;11.038;2022-12-13T09:08:22;10.13;;;6.63;;
39256;SDS011;24958;48.066;11.038;2022-12-13T09:11:00;10.33;;;7.33;;
39256;SDS011;24958;48.066;11.038;2022-12-13T09:13:27;12.83;;;9.73;;
39256;SDS011;24958;48.066;11.038;2022-12-13T09:15:53;12.77;;;11.47;;
39256;SDS011;24958;48.066;11.038;2022-12-13T09:18:19;16.40;;;12.10;;
39256;SDS011;24958;48.066;11.038;2022-12-13T09:20:45;16.50;;;15.00;;
39256;SDS011;24958;48.066;11.038;2022-12-13T09:23:14;8.43;;;7.53;;
39256;SDS011;24958;48.066;11.038;2022-12-13T09:25:40;8.60;;;6.70;;
39256;SDS011;24958;48.066;11.038;2022-12-13T09:28:06;10.47;;;7.73;;
39256;SDS011;24958;48.066;11.038;2022-12-13T09:30:34;9.70;;;8.23;;
39256;SDS011;24958;48.066;11.038;2022-12-13T09:33:01;7.90;;;6.37;;
39256;SDS011;24958;48.066;11.038;2022-12-13T09:35:27;7.57;;;6.13;;
39256;SDS011;24958;48.066;11.038;2022-12-13T09:37:54;9.10;;;6.40;;
39256;SDS011;24958;48.066;11.038;2022-12-13T09:40:24;9.03;;;8.10;;
39256;SDS011;24958;48.066;11.038;2022-12-13T09:42:51;7.80;;;5.47;;
39256;SDS011;24958;48.066;11.038;2022-12-13T09:45:18;9.87;;;7.07;;
39256;SDS011;24958;48.066;11.038;2022-12-13T09:47:45;8.90;;;6.90;;
39256;SDS011;24958;48.066;11.038;2022-12-13T09:50:14;10.53;;;6.73;;
39256;SDS011;24958;48.066;11.038;2022-12-13T09:52:42;10.30;;;6.97;;
39256;SDS011;24958;48.066;11.038;2022-12-13T09:57:45;9.10;;;7.17;;
39256;SDS011;24958;48.066;11.038;2022-12-13T10:00:12;9.70;;;7.63;;
39256;SDS011;24958;48.066;11.038;2022-12-13T10:02:47;8.37;;;7.50;;
39256;SDS011;24958;48.066;11.038;2022-12-13T10:05:36;6.10;;;5.10;;
39256;SDS011;24958;48.066;11.038;2022-12-13T10:10:46;8.23;;;6.70;;
39256;SDS011;24958;48.066;11.038;2022-12-13T10:15:47;7.23;;;5.50;;
39256;SDS011;24958;48.066;11.038;2022-12-13T10:18:17;8.00;;;7.20;;
39256;SDS011;24958;48.066;11.038;2022-12-13T10:20:45;7.23;;;5.40;;
39256;SDS011;24958;48.066;11.038;2022-12-13T10:23:13;7.13;;;5.63;;
39256;SDS011;24958;48.066;11.038;2022-12-13T10:25:49;8.03;;;6.60;;
39256;SDS011;24958;48.066;11.038;2022-12-13T10:28:23;8.20;;;5.77;;
39256;SDS011;24958;48.066;11.038;2022-12-13T10:30:50;7.67;;;6.80;;
39256;SDS011;24958;48.066;11.038;2022-12-13T10:33:20;8.50;;;5.90;;
39256;SDS011;24958;48.066;11.038;2022-12-13T10:36:00;8.30;;;6.30;;
39256;SDS011;24958;48.066;11.038;2022-12-13T10:38:27;9.03;;;6.73;;
39256;SDS011;24958;48.066;11.038;2022-12-13T10:40:54;7.40;;;6.70;;
39256;SDS011;24958;48.066;11.038;2022-12-13T10:43:29;11.07;;;7.20;;
39256;SDS011;24958;48.066;11.038;2022-12-13T10:51:13;8.33;;;6.97;;
39256;SDS011;24958;48.066;11.038;2022-12-13T10:53:53;8.10;;;6.07;;
39256;SDS011;24958;48.066;11.038;2022-12-13T10:56:21;9.00;;;7.00;;
39256;SDS011;24958;48.066;11.038;2022-12-13T10:58:48;10.07;;;7.70;;
39256;SDS011;24958;48.066;11.038;2022-12-13T11:03:41;9.00;;;7.50;;
39256;SDS011;24958;48.066;11.038;2022-12-13T11:06:15;8.77;;;7.77;;
39256;SDS011;24958;48.066;11.038;2022-12-13T11:08:42;9.07;;;8.00;;
39256;SDS011;24958;48.066;11.038;2022-12-13T11:11:08;9.30;;;8.30;;
39256;SDS011;24958;48.066;11.038;2022-12-13T11:13:52;8.00;;;7.20;;
39256;SDS011;24958;48.066;11.038;2022-12-13T11:16:22;12.17;;;10.53;;
39256;SDS011;24958;48.066;11.038;2022-12-13T11:18:51;8.90;;;8.00;;
39256;SDS011;24958;48.066;11.038;2022-12-13T11:21:25;8.53;;;7.70;;
39256;SDS011;24958;48.066;11.038;2022-12-13T11:23:54;11.37;;;10.27;;
39256;SDS011;24958;48.066;11.038;2022-12-13T11:26:21;9.17;;;8.27;;
39256;SDS011;24958;48.066;11.038;2022-12-13T11:41:47;9.67;;;8.67;;
39256;SDS011;24958;48.066;11.038;2022-12-13T11:44:16;10.60;;;8.67;;
39256;SDS011;24958;48.066;11.038;2022-12-13T11:46:45;10.07;;;9.00;;
39256;SDS011;24958;48.066;11.038;2022-12-13T11:49:17;9.20;;;8.13;;
39256;SDS011;24958;48.066;11.038;2022-12-13T11:51:46;9.77;;;8.80;;
39256;SDS011;24958;48.066;11.038;2022-12-13T11:56:47;9.13;;;8.23;;
39256;SDS011;24958;48.066;11.038;2022-12-13T12:01:50;9.73;;;8.10;;
39256;SDS011;24958;48.066;11.038;2022-12-13T12:04:20;10.53;;;8.27;;
39256;SDS011;24958;48.066;11.038;2022-12-13T12:09:33;8.30;;;7.50;;
39256;SDS011;24958;48.066;11.038;2022-12-13T12:12:05;10.17;;;8.17;;
39256;SDS011;24958;48.066;11.038;2022-12-13T12:14:36;10.33;;;8.27;;
39256;SDS011;24958;48.066;11.038;2022-12-13T12:17:05;10.10;;;7.90;;
39256;SDS011;24958;48.066;11.038;2022-12-13T12:19:38;9.23;;;8.27;;
39256;SDS011;24958;48.066;11.038;2022-12-13T12:22:10;8.77;;;7.80;;
39256;SDS011;24958;48.066;11.038;2022-12-13T12:35:32;8.80;;;7.70;;
39256;SDS011;24958;48.066;11.038;2022-12-13T12:40:49;8.63;;;7.73;;
39256;SDS011;24958;48.066;11.038;2022-12-13T12:43:34;12.33;;;8.77;;
39256;SDS011;24958;48.066;11.038;2022-12-13T12:48:56;9.10;;;7.37;;
39256;SDS011;24958;48.066;11.038;2022-12-13T12:53:52;10.37;;;8.60;;
39256;SDS011;24958;48.066;11.038;2022-12-13T13:04:01;10.30;;;8.47;;
39256;SDS011;24958;48.066;11.038;2022-12-13T13:06:30;11.37;;;8.93;;
39256;SDS011;24958;48.066;11.038;2022-12-13T13:08:59;10.73;;;8.67;;
39256;SDS011;24958;48.066;11.038;2022-12-13T13:11:27;9.77;;;7.73;;
39256;SDS011;24958;48.066;11.038;2022-12-13T13:18:53;12.87;;;8.77;;
39256;SDS011;24958;48.066;11.038;2022-12-13T13:24:05;12.77;;;9.97;;
39256;SDS011;24958;48.066;11.038;2022-12-13T13:26:36;9.87;;;8.70;;
39256;SDS011;24958;48.066;11.038;2022-12-13T13:32:01;12.15;;;9.98;;
39256;SDS011;24958;48.066;11.038;2022-12-13T13:34:36;13.07;;;9.50;;
39256;SDS011;24958;48.066;11.038;2022-12-13T13:37:47;13.77;;;12.27;;
39256;SDS011;24958;48.066;11.038;2022-12-13T13:42:20;13.77;;;11.03;;
39256;SDS011;24958;48.066;11.038;2022-12-13T13:49:46;13.33;;;9.97;;
39256;SDS011;24958;48.066;11.038;2022-12-13T14:08:30;13.57;;;9.57;;
39256;SDS011;24958;48.066;11.038;2022-12-13T14:24:02;12.63;;;8.97;;
39256;SDS011;24958;48.066;11.038;2022-12-13T14:28:58;12.27;;;9.67;;
39256;SDS011;24958;48.066;11.038;2022-12-13T14:31:29;16.83;;;10.33;;
39256;SDS011;24958;48.066;11.038;2022-12-13T14:33:58;13.80;;;9.40;;
39256;SDS011;24958;48.066;11.038;2022-12-13T14:36:27;18.20;;;11.17;;
39256;SDS011;24958;48.066;11.038;2022-12-13T14:39:04;17.67;;;10.77;;
39256;SDS011;24958;48.066;11.038;2022-12-13T14:41:31;16.63;;;9.77;;
39256;SDS011;24958;48.066;11.038;2022-12-13T14:44:14;16.47;;;10.07;;
39256;SDS011;24958;48.066;11.038;2022-12-13T14:46:47;15.17;;;10.40;;
39256;SDS011;24958;48.066;11.038;2022-12-13T14:49:13;15.90;;;10.33;;
39256;SDS011;24958;48.066;11.038;2022-12-13T14:51:40;12.37;;;7.30;;
39256;SDS011;24958;48.066;11.038;2022-12-13T14:54:06;17.07;;;10.90;;
39256;SDS011;24958;48.066;11.038;2022-12-13T14:56:33;14.23;;;9.83;;
39256;SDS011;24958;48.066;11.038;2022-12-13T14:59:00;13.73;;;10.13;;
39256;SDS011;24958;48.066;11.038;2022-12-13T15:01:33;15.37;;;11.27;;
39256;SDS011;24958;48.066;11.038;2022-12-13T15:04:16;16.33;;;10.57;;
39256;SDS011;24958;48.066;11.038;2022-12-13T15:06:43;16.40;;;10.80;;
39256;SDS011;24958;48.066;11.038;2022-12-13T15:09:12;16.83;;;11.17;;
39256;SDS011;24958;48.066;11.038;2022-12-13T15:11:43;10.33;;;7.73;;
39256;SDS011;24958;48.066;11.038;2022-12-13T15:14:13;14.60;;;9.77;;
39256;SDS011;24958;48.066;11.038;2022-12-13T15:16:45;11.70;;;8.17;;
39256;SDS011;24958;48.066;11.038;2022-12-13T15:21:40;14.33;;;9.80;;
39256;SDS011;24958;48.066;11.038;2022-12-13T15:24:20;14.40;;;9.17;;
39256;SDS011;24958;48.066;11.038;2022-12-13T15:26:47;11.43;;;8.33;;
39256;SDS011;24958;48.066;11.038;2022-12-13T15:29:15;12.17;;;7.97;;
39256;SDS011;24958;48.066;11.038;2022-12-13T15:31:42;15.53;;;9.70;;
39256;SDS011;24958;48.066;11.038;2022-12-13T15:37:27;15.33;;;9.90;;
39256;SDS011;24958;48.066;11.038;2022-12-13T15:39:45;14.10;;;9.37;;
39256;SDS011;24958;48.066;11.038;2022-12-13T15:42:17;15.83;;;9.70;;
39256;SDS011;24958;48.066;11.038;2022-12-13T15:44:49;15.27;;;9.53;;
39256;SDS011;24958;48.066;11.038;2022-12-13T15:47:18;14.87;;;9.37;;
39256;SDS011;24958;48.066;11.038;2022-12-13T15:49:51;13.40;;;9.00;;
39256;SDS011;24958;48.066;11.038;2022-12-13T15:52:22;19.07;;;10.70;;
39256;SDS011;24958;48.066;11.038;2022-12-13T15:54:56;16.60;;;9.73;;
39256;SDS011;24958;48.066;11.038;2022-12-13T15:57:23;15.53;;;10.37;;
39256;SDS011;24958;48.066;11.038;2022-12-13T15:59:59;15.97;;;9.90;;
39256;SDS011;24958;48.066;11.038;2022-12-13T16:02:26;14.60;;;10.23;;
39256;SDS011;24958;48.066;11.038;2022-12-13T16:04:54;58.10;;;27.27;;
39256;SDS011;24958;48.066;11.038;2022-12-13T16:07:31;61.00;;;28.27;;
39256;SDS011;24958;48.066;11.038;2022-12-13T16:10:05;29.70;;;15.83;;
39256;SDS011;24958;48.066;11.038;2022-12-13T16:12:36;75.13;;;34.97;;
39256;SDS011;24958;48.066;11.038;2022-12-13T16:17:41;51.43;;;25.47;;
39256;SDS011;24958;48.066;11.038;2022-12-13T16:20:11;105.77;;;58.53;;
39256;SDS011;24958;48.066;11.038;2022-12-13T16:22:38;109.43;;;53.93;;
39256;SDS011;24958;48.066;11.038;2022-12-13T16:25:05;53.30;;;28.67;;
39256;SDS011;24958;48.066;11.038;2022-12-13T16:27:31;26.73;;;16.67;;
39256;SDS011;24958;48.066;11.038;2022-12-13T16:29:57;40.03;;;21.33;;
39256;SDS011;24958;48.066;11.038;2022-12-13T16:32:23;50.70;;;28.20;;
39256;SDS011;24958;48.066;11.038;2022-12-13T16:34:49;40.67;;;24.00;;
39256;SDS011;24958;48.066;11.038;2022-12-13T16:37:15;20.20;;;10.77;;
39256;SDS011;24958;48.066;11.038;2022-12-13T16:39:41;12.67;;;9.57;;
39256;SDS011;24958;48.066;11.038;2022-12-13T16:42:08;16.93;;;11.87;;
39256;SDS011;24958;48.066;11.038;2022-12-13T16:44:35;16.30;;;11.63;;
39256;SDS011;24958;48.066;11.038;2022-12-13T16:47:08;15.93;;;10.20;;
39256;SDS011;24958;48.066;11.038;2022-12-13T16:49:36;15.23;;;10.93;;
39256;SDS011;24958;48.066;11.038;2022-12-13T16:52:02;18.57;;;13.37;;
39256;SDS011;24958;48.066;11.038;2022-12-13T16:54:31;19.80;;;14.23;;